Impacts TAF Board INFO
FOR SITUATIONAL AWARENESS. NOT TO BE USED FOR FLIGHT PLANNING PURPOSES.
IDs:

KMDW - Chicago/Midway Intl, IL, US

Issued at 0301 UTC 19 Feb 2018
Updated at 0331 UTC 19 Feb 2018
Potential Impact None Slight Moderate High
Time<<19/16Z 19/17Z 19/18Z 19/19Z 19/20Z 19/21Z 19/22Z 19/23Z 20/00Z 20/01Z 20/02Z 20/03Z 20/04Z>>
Type PRVL
  [TEMP]  
PRVL PRVL PRVL PRVL PRVL PRVL PRVL PRVL PRVL PRVL PRVL PRVL
VIS 1
  [0.5]  
1 1 1 1.5 1.5 1.5 1.5 2 2 2 2 2
CIG 4
  [2]  
4 4 4 4 4 4 4 6 6 6 6 6
Cover OVC
  [OVC]  
OVC OVC OVC OVC OVC OVC OVC OVC OVC OVC OVC OVC
FltCat LIFR
  [LIFR]  
LIFR LIFR LIFR LIFR LIFR LIFR LIFR IFR IFR IFR IFR IFR
WX -SHRA BR
  [-DZ FG]  
-SHRA BR -SHRA BR -SHRA BR -RA BR -RA BR -RA BR -RA BR -SHRA BR -SHRA BR -SHRA BR -SHRA BR -SHRA BR
WDir 150
[150]
150 150 150 200 200 200 200 190 190 190 190 190
WSpd 6
  [6]  
6 6 6 14 14 14 14 12 12 12 12 12
WGst --
  [--]  
-- -- -- 21 21 21 21 18 18 18 18 18

Raw TAF
KMDW 190301Z 1903/2006 17015G22KT P6SM BKN250 WS020/20045KT
  FM190600 18012KT P6SM SCT020 BKN040
  FM190900 19008KT 3SM BR SCT008 OVC012
  TEMPO 1910/1913 1SM BR SCT004 OVC008
  FM191300 15006KT 1SM -SHRA BR OVC004
  TEMPO 1913/1917 1/2SM -DZ FG OVC002
  FM192000 20014G21KT 1 1/2SM -RA BR OVC004
  FM200000 19012G18KT 2SM -SHRA BR OVC006


METAR Board
Radar Display
Forecast Discussion

FOR SITUATIONAL AWARENESS. NOT TO BE USED FOR FLIGHT PLANNING PURPOSES.